createdAt,value
2019-01-02T00:00:25.598Z,12.20
2019-01-02T00:02:53.842Z,8.73
2019-01-02T00:05:22.385Z,13.03
2019-01-02T00:07:50.720Z,12.43
2019-01-02T00:10:19.248Z,16.87
2019-01-02T00:12:47.581Z,12.03
2019-01-02T00:15:16.215Z,16.73
2019-01-02T00:17:44.469Z,7.93
2019-01-02T00:20:15.242Z,14.47
2019-01-02T00:22:43.501Z,11.50
2019-01-02T00:25:12.098Z,17.97
2019-01-02T00:27:40.616Z,13.27
2019-01-02T00:30:09.626Z,16.73
2019-01-02T00:32:38.284Z,12.43
2019-01-02T00:35:07.830Z,8.63
2019-01-02T00:37:36.347Z,6.37
2019-01-02T00:40:07.819Z,12.33
2019-01-02T00:42:36.335Z,13.50
2019-01-02T00:45:06.050Z,17.97
2019-01-02T00:47:34.680Z,9.40
2019-01-02T00:50:04.077Z,14.27
2019-01-02T00:52:32.963Z,12.03
2019-01-02T00:55:01.220Z,11.33
2019-01-02T00:57:29.869Z,13.27
2019-01-02T00:59:58.193Z,9.43
2019-01-02T01:02:26.747Z,13.40
2019-01-02T01:04:54.997Z,7.57
2019-01-02T01:07:23.650Z,11.30
2019-01-02T01:09:51.961Z,11.33
2019-01-02T01:12:20.617Z,16.63
2019-01-02T01:14:48.950Z,16.07
2019-01-02T01:17:17.595Z,14.03
2019-01-02T01:19:45.852Z,14.50
2019-01-02T01:22:14.401Z,9.50
2019-01-02T01:24:42.647Z,11.33
2019-01-02T01:27:11.299Z,13.30
2019-01-02T01:29:39.608Z,13.43
2019-01-02T01:32:08.139Z,11.43
2019-01-02T01:34:36.757Z,19.67
2019-01-02T01:37:05.301Z,9.67
2019-01-02T01:39:33.539Z,13.60
2019-01-02T01:42:01.793Z,17.07
2019-01-02T01:44:30.073Z,15.10
2019-01-02T01:46:58.693Z,9.30
2019-01-02T01:49:27.031Z,12.00
2019-01-02T01:51:55.636Z,10.40
2019-01-02T01:54:23.988Z,16.90
2019-01-02T01:56:52.236Z,13.17
2019-01-02T01:59:20.776Z,15.10
2019-01-02T02:01:49.293Z,16.10
2019-01-02T02:04:17.568Z,14.23
2019-01-02T02:06:45.816Z,15.13
2019-01-02T02:09:14.374Z,15.30
2019-01-02T02:11:42.998Z,15.20
2019-01-02T02:14:11.602Z,13.97
2019-01-02T02:16:39.918Z,12.70
2019-01-02T02:19:08.357Z,19.37
2019-01-02T02:21:36.615Z,14.67
2019-01-02T02:24:05.270Z,20.57
2019-01-02T02:26:33.795Z,12.97
2019-01-02T02:29:02.317Z,9.77
2019-01-02T02:31:30.937Z,12.43
2019-01-02T02:33:59.479Z,17.67
2019-01-02T02:36:28.099Z,13.17
2019-01-02T02:38:56.653Z,16.70
2019-01-02T02:41:25.522Z,12.63
2019-01-02T02:43:54.181Z,22.33
2019-01-02T02:46:22.815Z,23.90
2019-01-02T02:48:51.086Z,13.17
2019-01-02T02:51:19.712Z,14.83
2019-01-02T02:53:48.356Z,15.40
2019-01-02T02:56:16.980Z,11.67
2019-01-02T02:58:45.532Z,18.70
2019-01-02T03:01:13.954Z,12.87
2019-01-02T03:03:42.591Z,17.03
2019-01-02T03:06:11.005Z,25.27
2019-01-02T03:08:39.297Z,13.20
2019-01-02T03:11:07.558Z,17.73
2019-01-02T03:13:36.196Z,10.30
2019-01-02T03:16:04.821Z,13.57
2019-01-02T03:18:33.462Z,17.80
2019-01-02T03:21:02.089Z,16.07
2019-01-02T03:23:30.434Z,12.83
2019-01-02T03:25:58.692Z,17.60
2019-01-02T03:28:27.350Z,19.97
2019-01-02T03:30:55.870Z,13.87
2019-01-02T03:33:24.408Z,19.97
2019-01-02T03:35:52.667Z,17.43
2019-01-02T03:38:20.915Z,14.30
2019-01-02T03:40:49.449Z,14.03
2019-01-02T03:43:17.683Z,20.47
2019-01-02T03:45:45.959Z,17.87
2019-01-02T03:48:14.212Z,14.50
2019-01-02T03:50:42.491Z,12.23
2019-01-02T03:53:10.737Z,15.70
2019-01-02T03:55:39.004Z,17.57
2019-01-02T03:58:07.248Z,17.93
2019-01-02T04:00:35.521Z,17.10
2019-01-02T04:03:03.766Z,16.47
2019-01-02T04:05:32.033Z,11.50
2019-01-02T04:08:01.617Z,13.93
2019-01-02T04:10:29.893Z,15.00
2019-01-02T04:12:58.128Z,15.33
2019-01-02T04:15:26.391Z,11.20
2019-01-02T04:17:54.662Z,17.40
2019-01-02T04:20:22.932Z,14.10
2019-01-02T04:22:51.188Z,13.23
2019-01-02T04:25:19.453Z,15.20
2019-01-02T04:27:47.687Z,15.00
2019-01-02T04:30:15.968Z,12.17
2019-01-02T04:32:44.280Z,14.07
2019-01-02T04:35:12.556Z,16.87
2019-01-02T04:37:40.799Z,19.73
2019-01-02T04:40:13.594Z,10.67
2019-01-02T04:42:41.923Z,17.70
2019-01-02T04:45:10.920Z,16.47
2019-01-02T04:47:39.236Z,9.90
2019-01-02T04:50:12.302Z,10.87
2019-01-02T04:52:40.799Z,18.53
2019-01-02T04:55:09.054Z,17.17
2019-01-02T04:57:37.314Z,10.27
2019-01-02T05:00:16.514Z,14.20
2019-01-02T05:02:45.025Z,8.20
2019-01-02T05:05:13.531Z,13.27
2019-01-02T05:07:41.797Z,14.10
2019-01-02T05:10:11.796Z,21.17
2019-01-02T05:12:40.067Z,11.20
2019-01-02T05:15:10.256Z,9.20
2019-01-02T05:17:38.513Z,13.53
2019-01-02T05:20:09.704Z,18.27
2019-01-02T05:22:38.257Z,12.83
2019-01-02T05:25:07.828Z,23.97
2019-01-02T05:27:36.093Z,12.03
2019-01-02T05:30:11.337Z,19.63
2019-01-02T05:32:40.055Z,9.27
2019-01-02T05:35:09.051Z,17.93
2019-01-02T05:37:37.325Z,22.77
2019-01-02T05:40:08.965Z,17.47
2019-01-02T05:42:37.221Z,16.13
2019-01-02T05:45:07.114Z,17.37
2019-01-02T05:47:35.392Z,10.10
2019-01-02T05:50:04.976Z,18.50
2019-01-02T05:52:33.264Z,13.70
2019-01-02T05:55:01.511Z,25.63
2019-01-02T05:57:29.776Z,11.83
2019-01-02T05:59:58.029Z,10.93
2019-01-02T06:02:26.303Z,13.27
2019-01-02T06:04:54.555Z,14.87
2019-01-02T06:07:22.815Z,19.30
2019-01-02T06:09:51.065Z,13.07
2019-01-02T06:12:19.343Z,25.57
2019-01-02T06:14:47.576Z,16.17
2019-01-02T06:17:15.854Z,14.23
2019-01-02T06:19:44.167Z,19.77
2019-01-02T06:22:12.444Z,12.97
2019-01-02T06:24:40.692Z,18.33
2019-01-02T06:27:08.957Z,13.17
2019-01-02T06:29:37.484Z,16.30
2019-01-02T06:32:05.760Z,13.97
2019-01-02T06:34:33.999Z,24.30
2019-01-02T06:37:02.270Z,9.23
2019-01-02T06:39:30.519Z,14.83
2019-01-02T06:41:58.785Z,14.30
2019-01-02T06:44:27.043Z,15.30
2019-01-02T06:46:55.324Z,18.40
2019-01-02T06:49:23.587Z,15.40
2019-01-02T06:51:51.904Z,9.20
2019-01-02T06:54:20.173Z,25.63
2019-01-02T06:56:48.724Z,18.47
2019-01-02T06:59:17.027Z,19.83
2019-01-02T07:01:45.269Z,14.03
2019-01-02T07:04:13.538Z,23.23
2019-01-02T07:06:41.802Z,15.47
2019-01-02T07:09:10.063Z,15.17
2019-01-02T07:11:38.605Z,20.77
2019-01-02T07:14:07.129Z,17.97
2019-01-02T07:16:35.379Z,23.40
2019-01-02T07:19:03.650Z,16.37
2019-01-02T07:21:31.892Z,14.03
2019-01-02T07:24:00.398Z,16.03
2019-01-02T07:26:28.652Z,13.97
2019-01-02T07:28:56.927Z,20.47
2019-01-02T07:31:25.170Z,17.57
2019-01-02T07:33:56.951Z,18.23
2019-01-02T07:36:33.543Z,13.80
2019-01-02T07:39:17.129Z,21.37
2019-01-02T07:42:03.847Z,21.10
2019-01-02T07:44:38.474Z,19.53
2019-01-02T07:47:09.984Z,17.77
2019-01-02T07:49:52.933Z,18.77
2019-01-02T07:52:46.873Z,11.20
2019-01-02T07:55:21.233Z,17.27
2019-01-02T07:57:52.762Z,14.97
2019-01-02T08:00:30.347Z,10.13
2019-01-02T08:03:19.460Z,17.60
2019-01-02T08:06:16.232Z,15.20
2019-01-02T08:09:20.907Z,15.47
2019-01-02T08:12:16.484Z,17.07
2019-01-02T08:15:04.366Z,13.70
2019-01-02T08:17:44.623Z,12.97
2019-01-02T08:20:24.765Z,13.97
2019-01-02T08:23:02.224Z,17.30
2019-01-02T08:25:39.450Z,16.10
2019-01-02T08:28:16.428Z,14.53
2019-01-02T08:31:10.423Z,21.33
2019-01-02T08:33:53.502Z,11.83
2019-01-02T08:36:36.458Z,12.67
2019-01-02T08:39:10.648Z,11.70
2019-01-02T08:41:42.167Z,20.00
2019-01-02T08:44:36.307Z,14.27
2019-01-02T08:47:26.947Z,18.93
2019-01-02T08:50:19.209Z,12.77
2019-01-02T08:53:07.183Z,13.40
2019-01-02T08:55:44.524Z,13.20
2019-01-02T08:58:37.048Z,20.20
2019-01-02T09:01:11.260Z,20.57
2019-01-02T09:03:57.513Z,16.27
2019-01-02T09:06:31.576Z,15.10
2019-01-02T09:09:17.997Z,18.67
2019-01-02T09:12:09.912Z,16.07
2019-01-02T09:14:41.410Z,9.50
2019-01-02T09:17:27.870Z,14.47
2019-01-02T09:20:05.417Z,14.27
2019-01-02T09:22:48.996Z,21.93
2019-01-02T09:25:26.458Z,9.67
2019-01-02T09:28:06.900Z,11.47
2019-01-02T09:30:55.121Z,14.67
2019-01-02T09:33:29.388Z,16.67
2019-01-02T09:36:03.975Z,16.03
2019-01-02T09:38:50.558Z,25.50
2019-01-02T09:41:27.854Z,14.70
2019-01-02T09:44:05.149Z,16.43
2019-01-02T09:46:53.923Z,14.53
2019-01-02T09:49:43.115Z,14.23
2019-01-02T09:52:45.928Z,14.33
2019-01-02T09:55:23.306Z,14.87
2019-01-02T09:58:12.168Z,17.07
2019-01-02T10:01:04.387Z,17.37
2019-01-02T10:03:47.710Z,13.43
2019-01-02T10:06:37.345Z,12.97
2019-01-02T10:09:28.128Z,11.17
2019-01-02T10:12:05.472Z,17.80
2019-01-02T10:14:51.684Z,15.27
2019-01-02T10:17:41.807Z,16.77
2019-01-02T10:20:16.221Z,12.47
2019-01-02T10:23:12.526Z,13.17
2019-01-02T10:25:58.951Z,14.00
2019-01-02T10:28:45.418Z,11.57
2019-01-02T10:31:39.237Z,15.63
2019-01-02T10:34:33.326Z,11.03
2019-01-02T10:37:07.492Z,15.37
2019-01-02T10:39:55.473Z,14.87
2019-01-02T10:42:41.707Z,12.57
2019-01-02T10:45:13.228Z,19.77
2019-01-02T10:47:47.530Z,12.27
2019-01-02T10:50:27.556Z,9.27
2019-01-02T10:53:08.127Z,12.00
2019-01-02T10:55:42.326Z,9.03
2019-01-02T10:58:25.532Z,17.60
2019-01-02T11:01:14.951Z,14.00
2019-01-02T11:03:52.107Z,15.80
2019-01-02T11:06:35.259Z,19.03
2019-01-02T11:09:24.701Z,21.87
2019-01-02T11:12:07.956Z,13.30
2019-01-02T11:15:06.532Z,16.70
2019-01-02T11:17:52.730Z,12.07
2019-01-02T11:20:36.258Z,15.30
2019-01-02T11:23:25.112Z,12.40
2019-01-02T11:26:23.441Z,13.93
2019-01-02T11:29:22.836Z,10.80
2019-01-02T11:32:12.352Z,10.77
2019-01-02T11:34:58.310Z,13.07
2019-01-02T11:37:32.743Z,14.30
2019-01-02T11:40:20.643Z,13.33
2019-01-02T11:42:52.160Z,12.83
2019-01-02T11:45:20.435Z,15.83
2019-01-02T11:47:48.956Z,17.00
2019-01-02T11:50:17.233Z,18.77
2019-01-02T11:52:45.482Z,19.30
2019-01-02T11:55:13.749Z,22.37
2019-01-02T11:57:41.990Z,15.73
2019-01-02T12:00:12.772Z,13.20
2019-01-02T12:02:41.027Z,13.97
2019-01-02T12:05:09.283Z,12.73
2019-01-02T12:07:37.566Z,14.60
2019-01-02T12:10:08.996Z,16.30
2019-01-02T12:12:37.286Z,14.63
2019-01-02T12:15:07.766Z,14.53
2019-01-02T12:17:36.047Z,15.10
2019-01-02T12:20:05.350Z,14.23
2019-01-02T12:22:33.633Z,15.10
2019-01-02T12:25:01.874Z,12.43
2019-01-02T12:27:30.150Z,11.33
2019-01-02T12:29:58.450Z,8.23
2019-01-02T12:32:26.720Z,10.07
2019-01-02T12:34:54.971Z,13.43
2019-01-02T12:37:23.251Z,10.07
2019-01-02T12:39:51.572Z,6.73
2019-01-02T12:42:19.875Z,12.67
2019-01-02T12:44:48.185Z,12.13
2019-01-02T12:47:16.510Z,8.17
2019-01-02T12:49:44.758Z,6.47
2019-01-02T12:52:13.040Z,7.47
2019-01-02T12:54:41.293Z,9.07
2019-01-02T12:57:09.620Z,9.20
2019-01-02T12:59:37.938Z,9.33
2019-01-02T13:02:09.761Z,10.80
2019-01-02T13:04:50.112Z,9.27
2019-01-02T13:07:44.731Z,7.90
2019-01-02T13:10:19.405Z,7.83
2019-01-02T13:12:50.936Z,7.53
2019-01-02T13:15:43.065Z,9.40
2019-01-02T13:18:26.143Z,8.90
2019-01-02T13:21:12.577Z,9.70
2019-01-02T13:23:47.018Z,8.40
2019-01-02T13:26:27.105Z,10.70
2019-01-02T13:29:04.860Z,10.47
2019-01-02T13:31:52.987Z,10.60
2019-01-02T13:34:30.094Z,7.27
2019-01-02T13:37:01.902Z,8.63
2019-01-02T13:39:39.228Z,5.57
2019-01-02T13:42:25.480Z,7.37
2019-01-02T13:45:00.002Z,9.63
2019-01-02T13:47:31.509Z,6.73
2019-01-02T13:50:03.059Z,4.10
2019-01-02T13:52:31.380Z,7.70
2019-01-02T13:55:02.165Z,8.40
2019-01-02T13:57:30.420Z,5.67
2019-01-02T13:59:58.708Z,9.20
2019-01-02T14:02:27.028Z,6.97
2019-01-02T14:04:55.297Z,4.03
2019-01-02T14:07:23.557Z,6.63
2019-01-02T14:09:51.883Z,6.30
2019-01-02T14:12:20.130Z,9.83
2019-01-02T14:14:48.382Z,7.27
2019-01-02T14:17:16.645Z,5.63
2019-01-02T14:19:45.210Z,10.37
2019-01-02T14:22:13.458Z,6.23
2019-01-02T14:24:41.719Z,11.73
2019-01-02T14:27:09.959Z,7.17
2019-01-02T14:29:38.232Z,7.83
2019-01-02T14:32:06.471Z,9.93
2019-01-02T14:34:34.755Z,7.37
2019-01-02T14:37:03.007Z,5.73
2019-01-02T14:39:31.269Z,8.97
2019-01-02T14:41:59.784Z,7.73
2019-01-02T14:44:28.059Z,4.53
2019-01-02T14:46:56.301Z,6.40
2019-01-02T14:49:24.573Z,9.07
2019-01-02T14:51:52.828Z,11.87
2019-01-02T14:54:21.093Z,8.87
2019-01-02T14:56:49.613Z,9.87
2019-01-02T14:59:17.861Z,6.10
2019-01-02T15:01:46.122Z,9.70
2019-01-02T15:04:14.387Z,10.67
2019-01-02T15:06:42.645Z,5.00
2019-01-02T15:09:10.900Z,11.73
2019-01-02T15:11:39.163Z,9.47
2019-01-02T15:14:07.422Z,10.00
2019-01-02T15:16:35.688Z,7.63
2019-01-02T15:19:03.942Z,8.47
2019-01-02T15:21:32.216Z,6.80
2019-01-02T15:24:00.448Z,7.50
2019-01-02T15:26:28.719Z,11.97
2019-01-02T15:28:56.959Z,7.27
2019-01-02T15:31:25.227Z,9.17
2019-01-02T15:33:53.475Z,9.80
2019-01-02T15:36:21.740Z,6.23
2019-01-02T15:38:49.986Z,13.83
2019-01-02T15:41:18.258Z,10.43
2019-01-02T15:43:46.513Z,9.17
2019-01-02T15:46:14.774Z,13.03
2019-01-02T15:48:43.018Z,7.77
2019-01-02T15:51:11.310Z,8.67
2019-01-02T15:53:39.561Z,12.37
2019-01-02T15:56:07.825Z,6.93
2019-01-02T15:58:36.079Z,9.83
2019-01-02T16:01:04.334Z,7.60
2019-01-02T16:03:32.856Z,7.67
2019-01-02T16:06:01.099Z,7.63
2019-01-02T16:08:29.379Z,7.53
2019-01-02T16:10:57.704Z,6.33
2019-01-02T16:13:25.999Z,9.10
2019-01-02T16:15:54.246Z,9.33
2019-01-02T16:18:22.511Z,3.17
2019-01-02T16:20:51.449Z,6.17
2019-01-02T16:23:19.800Z,5.83
2019-01-02T16:25:48.044Z,4.17
2019-01-02T16:28:16.300Z,5.57
2019-01-02T16:30:44.551Z,8.73
2019-01-02T16:33:12.825Z,8.47
2019-01-02T16:35:41.081Z,5.40
2019-01-02T16:38:09.592Z,7.60
2019-01-02T16:40:37.839Z,5.23
2019-01-02T16:43:06.101Z,7.00
2019-01-02T16:45:34.366Z,7.70
2019-01-02T16:48:02.673Z,6.83
2019-01-02T16:50:30.928Z,4.07
2019-01-02T16:52:59.479Z,4.57
2019-01-02T16:55:27.711Z,7.27
2019-01-02T16:57:55.977Z,8.87
2019-01-02T17:00:24.225Z,6.30
2019-01-02T17:02:52.759Z,7.47
2019-01-02T17:05:21.288Z,12.30
2019-01-02T17:07:49.546Z,8.03
2019-01-02T17:10:17.792Z,7.53
2019-01-02T17:12:46.076Z,10.97
2019-01-02T17:15:14.311Z,7.30
2019-01-02T17:17:42.839Z,7.97
2019-01-02T17:20:11.092Z,6.50
2019-01-02T17:22:39.347Z,10.37
2019-01-02T17:25:08.239Z,8.20
2019-01-02T17:27:36.765Z,9.30
2019-01-02T17:30:07.161Z,4.67
2019-01-02T17:32:35.492Z,6.10
2019-01-02T17:35:04.373Z,6.87
2019-01-02T17:37:32.666Z,2.97
2019-01-02T17:40:00.915Z,5.53
2019-01-02T17:42:29.172Z,6.77
2019-01-02T17:44:57.436Z,7.73
2019-01-02T17:47:25.680Z,10.57
2019-01-02T17:49:53.958Z,8.80
2019-01-02T17:52:22.266Z,11.07
2019-01-02T17:54:50.536Z,10.40
2019-01-02T17:57:19.030Z,9.93
2019-01-02T17:59:47.279Z,13.13
2019-01-02T18:02:15.541Z,8.13
2019-01-02T18:04:44.070Z,6.07
2019-01-02T18:07:12.324Z,8.80
2019-01-02T18:09:40.886Z,7.47
2019-01-02T18:12:09.131Z,7.43
2019-01-02T18:14:37.384Z,7.37
2019-01-02T18:17:05.630Z,13.30
2019-01-02T18:19:33.901Z,9.57
2019-01-02T18:22:02.156Z,6.63
2019-01-02T18:24:30.418Z,10.37
2019-01-02T18:26:58.689Z,8.97
2019-01-02T18:29:26.965Z,6.57
2019-01-02T18:31:55.296Z,15.53
2019-01-02T18:34:23.632Z,6.97
2019-01-02T18:36:51.871Z,7.80
2019-01-02T18:39:20.316Z,11.13
2019-01-02T18:41:48.566Z,8.60
2019-01-02T18:44:20.432Z,7.07
2019-01-02T18:46:46.869Z,9.47
2019-01-02T18:49:15.113Z,7.03
2019-01-02T18:51:43.351Z,6.60
2019-01-02T18:54:11.635Z,8.63
2019-01-02T18:56:39.881Z,7.73
2019-01-02T18:59:08.131Z,11.67
2019-01-02T19:01:36.403Z,7.53
2019-01-02T19:04:04.660Z,8.13
2019-01-02T19:06:33.176Z,7.63
2019-01-02T19:09:01.423Z,6.93
2019-01-02T19:11:29.687Z,11.53
2019-01-02T19:13:57.932Z,8.33
2019-01-02T19:16:26.217Z,6.00
2019-01-02T19:18:54.724Z,6.40
2019-01-02T19:21:23.261Z,10.00
2019-01-02T19:23:51.705Z,4.77
2019-01-02T19:26:20.267Z,7.73
2019-01-02T19:28:48.524Z,6.87
2019-01-02T19:31:16.852Z,8.00
2019-01-02T19:33:45.383Z,11.27
2019-01-02T19:36:13.669Z,9.07
2019-01-02T19:38:42.212Z,5.93
2019-01-02T19:41:10.789Z,3.77
2019-01-02T19:43:39.038Z,3.40
2019-01-02T19:46:07.313Z,6.63
2019-01-02T19:48:35.838Z,3.87
2019-01-02T19:51:04.118Z,9.83
2019-01-02T19:53:32.366Z,3.73
2019-01-02T19:56:00.651Z,4.07
2019-01-02T19:58:28.896Z,7.50
2019-01-02T20:00:57.144Z,4.83
2019-01-02T20:03:25.654Z,3.90
2019-01-02T20:05:56.912Z,5.43
2019-01-02T20:08:25.183Z,6.00
2019-01-02T20:10:53.418Z,5.73
2019-01-02T20:13:21.682Z,2.27
2019-01-02T20:15:49.951Z,4.97
2019-01-02T20:18:18.205Z,8.77
2019-01-02T20:20:46.451Z,6.83
2019-01-02T20:23:14.714Z,7.97
2019-01-02T20:25:42.963Z,3.97
2019-01-02T20:28:11.476Z,5.93
2019-01-02T20:30:39.757Z,5.80
2019-01-02T20:33:08.333Z,3.13
2019-01-02T20:35:36.598Z,5.37
2019-01-02T20:38:04.871Z,4.97
2019-01-02T20:40:33.199Z,1.83
2019-01-02T20:43:01.468Z,8.30
2019-01-02T20:45:29.758Z,4.93
2019-01-02T20:47:58.048Z,7.43
2019-01-02T20:50:26.580Z,4.13
2019-01-02T20:52:54.823Z,6.37
2019-01-02T20:55:23.103Z,5.37
2019-01-02T20:57:51.345Z,8.07
2019-01-02T21:00:19.612Z,6.07
2019-01-02T21:02:47.881Z,3.70
2019-01-02T21:05:16.145Z,4.23
2019-01-02T21:07:44.393Z,6.17
2019-01-02T21:10:12.680Z,8.40
2019-01-02T21:12:40.931Z,6.60
2019-01-02T21:15:09.187Z,5.20
2019-01-02T21:17:37.462Z,4.00
2019-01-02T21:20:07.354Z,7.00
2019-01-02T21:22:35.606Z,8.40
2019-01-02T21:25:05.508Z,9.27
2019-01-02T21:27:33.738Z,3.77
2019-01-02T21:30:02.021Z,4.97
2019-01-02T21:32:30.328Z,7.87
2019-01-02T21:34:58.595Z,10.33
2019-01-02T21:37:26.901Z,8.73
2019-01-02T21:39:55.171Z,3.63
2019-01-02T21:42:23.403Z,8.70
2019-01-02T21:44:52.941Z,11.53
2019-01-02T21:47:21.282Z,7.53
2019-01-02T21:49:49.543Z,7.70
2019-01-02T21:52:17.821Z,8.70
2019-01-02T21:54:46.109Z,10.17
2019-01-02T21:57:14.408Z,8.10
2019-01-02T21:59:43.040Z,10.63
2019-01-02T22:02:11.278Z,7.70
2019-01-02T22:04:39.552Z,5.27
2019-01-02T22:07:07.792Z,8.63
2019-01-02T22:09:36.064Z,8.90
2019-01-02T22:12:04.308Z,13.23
2019-01-02T22:14:32.581Z,16.30
2019-01-02T22:17:00.823Z,9.40
2019-01-02T22:19:29.103Z,10.63
2019-01-02T22:21:57.354Z,7.23
2019-01-02T22:24:25.627Z,6.80
2019-01-02T22:26:54.132Z,6.83
2019-01-02T22:29:22.402Z,12.77
2019-01-02T22:31:50.642Z,4.77
2019-01-02T22:34:18.904Z,14.17
2019-01-02T22:36:47.171Z,6.20
2019-01-02T22:39:15.427Z,8.20
2019-01-02T22:41:43.712Z,7.87
2019-01-02T22:44:11.950Z,8.67
2019-01-02T22:46:40.291Z,8.87
2019-01-02T22:49:08.566Z,7.07
2019-01-02T22:51:36.832Z,6.97
2019-01-02T22:54:05.075Z,6.10
2019-01-02T22:56:33.334Z,8.60
2019-01-02T22:59:02.420Z,6.97
2019-01-02T23:01:32.331Z,5.40
2019-01-02T23:04:04.961Z,7.43
2019-01-02T23:06:37.751Z,7.30
2019-01-02T23:09:13.506Z,9.33
2019-01-02T23:11:59.694Z,4.37
2019-01-02T23:14:45.579Z,5.90
2019-01-02T23:17:15.492Z,5.73
2019-01-02T23:19:48.319Z,6.83
2019-01-02T23:22:29.942Z,4.53
2019-01-02T23:25:15.852Z,9.67
2019-01-02T23:28:00.876Z,3.83
2019-01-02T23:30:33.548Z,12.83
2019-01-02T23:33:18.309Z,8.90
2019-01-02T23:36:04.227Z,5.70
2019-01-02T23:38:49.342Z,6.73
2019-01-02T23:41:35.585Z,12.10
2019-01-02T23:44:21.552Z,5.30
2019-01-02T23:47:00.488Z,3.93
2019-01-02T23:49:36.149Z,7.80
2019-01-02T23:52:12.023Z,10.27
2019-01-02T23:54:56.949Z,9.10
2019-01-02T23:57:38.824Z,7.33
